createdAt,value
2023-03-17T00:00:58.469Z,7.03
2023-03-17T00:04:01.523Z,6.37
2023-03-17T00:07:05.390Z,7.78
2023-03-17T00:10:14.512Z,6.45
2023-03-17T00:13:17.536Z,7.40
2023-03-17T00:16:32.544Z,6.62
2023-03-17T00:19:36.313Z,6.20
2023-03-17T00:22:39.807Z,6.00
2023-03-17T00:25:43.259Z,6.45
2023-03-17T00:28:46.220Z,6.22
2023-03-17T00:31:49.323Z,6.22
2023-03-17T00:34:52.098Z,6.90
2023-03-17T00:37:58.293Z,7.57
2023-03-17T00:41:01.365Z,6.68
2023-03-17T00:44:04.801Z,6.45
2023-03-17T00:47:10.185Z,7.22
2023-03-17T00:50:18.827Z,6.00
2023-03-17T00:53:22.069Z,6.85
2023-03-17T00:56:24.712Z,6.68
2023-03-17T00:59:38.003Z,7.12
2023-03-17T01:02:40.512Z,5.80
2023-03-17T01:05:43.434Z,5.95
2023-03-17T01:08:45.715Z,6.40
2023-03-17T01:11:49.176Z,5.90
2023-03-17T01:14:51.645Z,6.22
2023-03-17T01:17:54.759Z,6.00
2023-03-17T01:20:56.890Z,6.43
2023-03-17T01:24:00.523Z,6.40
2023-03-17T01:27:04.966Z,6.32
2023-03-17T01:30:21.559Z,6.62
2023-03-17T01:33:23.904Z,6.90
2023-03-17T01:36:26.513Z,6.62
2023-03-17T01:39:28.750Z,5.65
2023-03-17T01:42:32.164Z,6.28
2023-03-17T01:46:12.302Z,5.62
2023-03-17T01:49:37.419Z,5.90
2023-03-17T01:52:40.447Z,6.15
2023-03-17T01:55:45.521Z,5.93
2023-03-17T01:58:51.959Z,5.03
2023-03-17T02:02:01.429Z,5.35
2023-03-17T02:05:07.402Z,6.15
2023-03-17T02:08:15.343Z,5.12
2023-03-17T02:11:19.194Z,4.93
2023-03-17T02:14:21.531Z,4.78
2023-03-17T02:17:26.378Z,5.28
2023-03-17T02:20:29.130Z,4.68
2023-03-17T02:23:31.803Z,5.12
2023-03-17T02:26:35.467Z,5.50
2023-03-17T02:29:38.012Z,5.50
2023-03-17T02:32:40.448Z,5.22
2023-03-17T02:35:43.165Z,5.20
2023-03-17T02:38:45.331Z,4.80
2023-03-17T02:41:47.857Z,4.25
2023-03-17T02:44:50.619Z,4.93
2023-03-17T02:47:55.283Z,4.60
2023-03-17T02:50:57.712Z,4.68
2023-03-17T02:54:03.570Z,4.22
2023-03-17T02:57:06.456Z,4.47
2023-03-17T03:00:10.481Z,4.60
2023-03-17T03:03:12.968Z,4.53
2023-03-17T03:06:15.431Z,5.65
2023-03-17T03:09:17.973Z,5.07
2023-03-17T03:12:20.584Z,3.95
2023-03-17T03:15:23.149Z,4.47
2023-03-17T03:18:26.127Z,4.55
2023-03-17T03:21:29.050Z,4.72
2023-03-17T03:24:32.217Z,4.30
2023-03-17T03:27:34.902Z,4.80
2023-03-17T03:30:37.924Z,4.50
2023-03-17T03:33:41.576Z,4.32
2023-03-17T03:36:44.350Z,4.20
2023-03-17T03:39:47.669Z,4.50
2023-03-17T03:42:50.520Z,3.92
2023-03-17T03:45:54.561Z,4.37
2023-03-17T03:48:57.052Z,4.22
2023-03-17T03:51:59.211Z,5.12
2023-03-17T03:55:02.036Z,4.28
2023-03-17T03:58:04.318Z,4.75
2023-03-17T04:01:09.495Z,4.05
2023-03-17T04:04:11.990Z,4.65
2023-03-17T04:07:14.450Z,4.97
2023-03-17T04:10:17.477Z,4.55
2023-03-17T04:13:19.623Z,5.03
2023-03-17T04:16:22.143Z,3.87
2023-03-17T04:19:24.357Z,4.37
2023-03-17T04:22:27.132Z,4.78
2023-03-17T04:25:29.373Z,4.55
2023-03-17T04:28:31.939Z,4.30
2023-03-17T04:31:37.556Z,5.25
2023-03-17T04:34:41.310Z,4.18
2023-03-17T04:37:43.579Z,5.10
2023-03-17T04:40:46.263Z,4.18
2023-03-17T04:43:48.526Z,6.87
2023-03-17T04:46:51.156Z,4.95
2023-03-17T04:49:53.347Z,4.80
2023-03-17T04:52:55.857Z,4.20
2023-03-17T04:55:58.364Z,4.60
2023-03-17T04:59:00.935Z,5.43
2023-03-17T05:02:03.166Z,4.00
2023-03-17T05:05:05.901Z,5.47
2023-03-17T05:08:08.212Z,6.35
2023-03-17T05:11:11.706Z,4.65
2023-03-17T05:14:13.883Z,4.75
2023-03-17T05:17:16.409Z,5.03
2023-03-17T05:20:18.701Z,4.22
2023-03-17T05:23:22.995Z,5.40
2023-03-17T05:26:25.328Z,5.15
2023-03-17T05:29:28.227Z,5.47
2023-03-17T05:32:30.443Z,5.37
2023-03-17T05:35:33.009Z,5.97
2023-03-17T05:38:35.336Z,6.12
2023-03-17T05:41:38.063Z,7.45
2023-03-17T05:44:40.275Z,7.12
2023-03-17T05:47:43.706Z,6.65
2023-03-17T05:50:46.034Z,6.60
2023-03-17T05:53:48.704Z,6.50
2023-03-17T05:56:51.025Z,6.95
2023-03-17T05:59:54.434Z,5.75
2023-03-17T06:02:56.756Z,6.32
2023-03-17T06:05:59.387Z,6.35
2023-03-17T06:09:01.671Z,6.30
2023-03-17T06:12:04.790Z,5.90
2023-03-17T06:15:09.698Z,6.05
2023-03-17T06:18:12.463Z,5.90
2023-03-17T06:21:15.125Z,5.62
2023-03-17T06:24:17.995Z,7.12
2023-03-17T06:27:20.397Z,5.70
2023-03-17T06:30:23.213Z,5.47
2023-03-17T06:33:26.633Z,6.75
2023-03-17T06:36:30.150Z,5.90
2023-03-17T06:39:32.591Z,6.28
2023-03-17T06:42:35.519Z,6.37
2023-03-17T06:45:37.860Z,6.70
2023-03-17T06:48:40.444Z,6.57
2023-03-17T06:51:42.771Z,6.70
2023-03-17T06:54:45.468Z,7.75
2023-03-17T06:57:49.817Z,7.00
2023-03-17T07:00:54.130Z,7.53
2023-03-17T07:03:56.617Z,6.85
2023-03-17T07:06:59.139Z,6.93
2023-03-17T07:10:02.056Z,7.43
2023-03-17T07:13:07.744Z,6.95
2023-03-17T07:16:12.190Z,5.60
2023-03-17T07:19:14.769Z,6.47
2023-03-17T07:22:16.972Z,5.12
2023-03-17T07:25:19.883Z,6.45
2023-03-17T07:28:22.070Z,5.53
2023-03-17T07:31:25.378Z,6.00
2023-03-17T07:34:28.232Z,6.22
2023-03-17T07:37:32.528Z,7.90
2023-03-17T07:40:37.962Z,6.32
2023-03-17T07:43:41.154Z,6.47
2023-03-17T07:46:43.305Z,7.28
2023-03-17T07:49:46.066Z,7.30
2023-03-17T07:52:48.314Z,7.28
2023-03-17T07:55:51.277Z,7.40
2023-03-17T07:58:54.271Z,6.97
2023-03-17T08:01:58.151Z,6.68
2023-03-17T08:05:02.391Z,7.22
2023-03-17T08:08:06.628Z,7.37
2023-03-17T08:11:09.940Z,5.87
2023-03-17T08:14:13.179Z,6.32
2023-03-17T08:17:17.340Z,5.70
2023-03-17T08:20:19.655Z,5.00
2023-03-17T08:23:22.473Z,5.30
2023-03-17T08:26:25.493Z,5.62
2023-03-17T08:29:29.060Z,5.05
2023-03-17T08:32:32.077Z,4.60
2023-03-17T08:35:37.312Z,4.32
2023-03-17T08:38:42.309Z,4.05
2023-03-17T08:41:45.020Z,3.15
2023-03-17T08:44:48.324Z,2.75
2023-03-17T08:47:50.821Z,2.72
2023-03-17T08:50:53.305Z,3.55
2023-03-17T08:53:56.230Z,2.62
2023-03-17T08:56:58.770Z,2.85
2023-03-17T09:00:01.954Z,3.00
2023-03-17T09:03:05.714Z,2.83
2023-03-17T09:06:12.223Z,2.40
2023-03-17T09:09:14.939Z,2.47
2023-03-17T09:12:17.670Z,2.05
2023-03-17T09:15:19.926Z,2.83
2023-03-17T09:18:23.031Z,2.62
2023-03-17T09:21:25.349Z,2.42
2023-03-17T09:24:28.169Z,3.17
2023-03-17T09:27:30.630Z,2.55
2023-03-17T09:30:33.677Z,2.53
2023-03-17T09:33:36.003Z,2.92
2023-03-17T09:36:38.746Z,2.80
2023-03-17T09:39:41.691Z,2.75
2023-03-17T09:42:58.044Z,2.90
2023-03-17T09:46:17.769Z,2.40
2023-03-17T09:49:23.025Z,2.97
2023-03-17T09:52:30.270Z,3.00
2023-03-17T09:55:35.749Z,3.08
2023-03-17T09:58:42.409Z,3.25
2023-03-17T10:01:45.736Z,2.87
2023-03-17T10:04:48.927Z,2.97
2023-03-17T10:08:31.209Z,2.53
2023-03-17T10:11:48.797Z,2.40
2023-03-17T10:15:13.577Z,2.85
2023-03-17T10:18:18.205Z,2.53
2023-03-17T10:21:33.828Z,2.40
2023-03-17T10:24:43.333Z,2.75
2023-03-17T10:27:56.324Z,3.12
2023-03-17T10:31:22.817Z,2.40
2023-03-17T10:34:32.621Z,2.70
2023-03-17T10:37:36.640Z,2.95
2023-03-17T10:40:39.688Z,2.67
2023-03-17T10:43:45.895Z,2.72
2023-03-17T10:46:57.124Z,3.03
2023-03-17T10:50:17.711Z,2.92
2023-03-17T10:53:29.386Z,2.58
2023-03-17T10:56:39.619Z,3.10
2023-03-17T10:59:44.624Z,2.50
2023-03-17T11:02:57.021Z,3.05
2023-03-17T11:06:05.772Z,3.12
2023-03-17T11:09:11.032Z,2.97
2023-03-17T11:12:50.254Z,3.33
2023-03-17T11:15:58.185Z,2.95
2023-03-17T11:19:02.512Z,2.50
2023-03-17T11:22:17.856Z,2.92
2023-03-17T11:25:20.978Z,2.83
2023-03-17T11:28:33.050Z,2.80
2023-03-17T11:31:52.004Z,2.85
2023-03-17T11:35:38.373Z,2.87
2023-03-17T11:38:57.670Z,2.90
2023-03-17T11:53:05.747Z,2.25
2023-03-17T11:56:19.827Z,2.90
2023-03-17T11:59:34.353Z,2.87
2023-03-17T12:02:54.769Z,2.97
2023-03-17T12:06:02.083Z,3.12
2023-03-17T12:09:30.006Z,3.10
2023-03-17T12:12:39.251Z,2.45
2023-03-17T12:15:43.853Z,3.30
2023-03-17T12:19:21.930Z,3.10
2023-03-17T12:22:34.405Z,2.85
2023-03-17T12:26:12.363Z,2.97
2023-03-17T12:29:30.616Z,2.47
2023-03-17T12:32:38.110Z,3.03
2023-03-17T12:35:40.654Z,3.08
2023-03-17T12:39:01.715Z,2.90
2023-03-17T12:42:13.485Z,2.90
2023-03-17T12:45:27.965Z,3.42
2023-03-17T12:48:38.721Z,3.35
2023-03-17T12:52:06.707Z,2.75
2023-03-17T12:55:15.624Z,2.87
2023-03-17T12:58:41.075Z,2.87
2023-03-17T13:01:46.503Z,2.92
2023-03-17T13:04:57.779Z,2.45
2023-03-17T13:08:02.337Z,3.35
2023-03-17T13:11:29.426Z,2.50
2023-03-17T13:14:41.089Z,2.95
2023-03-17T13:17:43.778Z,2.42
2023-03-17T13:21:11.234Z,2.78
2023-03-17T13:24:18.781Z,3.20
2023-03-17T13:27:30.044Z,3.67
2023-03-17T13:30:36.459Z,3.80
2023-03-17T13:33:56.723Z,3.17
2023-03-17T13:37:22.332Z,3.08
2023-03-17T13:40:36.243Z,2.80
2023-03-17T13:43:57.737Z,3.15
2023-03-17T13:47:17.328Z,3.22
2023-03-17T13:50:32.646Z,3.00
2023-03-17T13:53:57.583Z,2.72
2023-03-17T13:57:22.356Z,3.00
2023-03-17T14:00:27.824Z,3.10
2023-03-17T14:03:35.199Z,3.37
2023-03-17T14:06:38.265Z,3.55
2023-03-17T14:09:42.344Z,2.80
2023-03-17T14:12:52.355Z,2.95
2023-03-17T14:16:27.589Z,3.30
2023-03-17T14:19:31.056Z,2.95
2023-03-17T14:22:45.499Z,2.97
2023-03-17T14:25:50.543Z,2.70
2023-03-17T14:28:53.947Z,2.78
2023-03-17T14:32:16.471Z,3.92
2023-03-17T14:35:19.894Z,3.53
2023-03-17T14:38:50.005Z,3.30
2023-03-17T14:42:00.797Z,3.17
2023-03-17T14:45:07.181Z,3.17
2023-03-17T14:48:14.221Z,3.12
2023-03-17T14:51:39.175Z,3.47
2023-03-17T14:54:42.003Z,2.83
2023-03-17T14:57:49.386Z,3.53
2023-03-17T15:00:57.144Z,3.22
2023-03-17T15:04:18.693Z,3.03
2023-03-17T15:07:39.971Z,3.40
2023-03-17T15:10:43.545Z,3.37
2023-03-17T15:13:47.260Z,3.35
2023-03-17T15:16:52.553Z,3.20
2023-03-17T15:20:00.370Z,3.72
2023-03-17T15:23:25.070Z,3.37
2023-03-17T15:26:34.069Z,3.05
2023-03-17T15:29:36.344Z,3.33
2023-03-17T15:32:39.700Z,3.95
2023-03-17T15:35:41.969Z,2.78
2023-03-17T15:38:44.598Z,3.70
2023-03-17T15:41:46.809Z,3.37
2023-03-17T15:44:49.444Z,3.92
2023-03-17T15:47:51.924Z,3.15
2023-03-17T15:50:56.652Z,3.95
2023-03-17T15:53:59.104Z,3.67
2023-03-17T15:57:01.533Z,2.80
2023-03-17T16:00:04.385Z,3.25
2023-03-17T16:03:33.366Z,3.72
2023-03-17T16:06:36.542Z,3.05
2023-03-17T16:09:38.957Z,3.83
2023-03-17T16:12:41.752Z,3.40
2023-03-17T16:15:55.809Z,4.03
2023-03-17T16:18:58.538Z,2.70
2023-03-17T16:22:00.826Z,4.28
2023-03-17T16:25:06.756Z,3.65
2023-03-17T16:28:23.631Z,4.12
2023-03-17T16:31:30.264Z,3.67
2023-03-17T16:34:32.743Z,3.80
2023-03-17T16:37:37.093Z,3.97
2023-03-17T16:40:42.957Z,3.70
2023-03-17T16:43:50.922Z,3.83
2023-03-17T16:46:53.209Z,4.10
2023-03-17T16:49:55.813Z,3.97
2023-03-17T16:52:58.741Z,3.50
2023-03-17T16:56:01.267Z,3.80
2023-03-17T16:59:04.274Z,4.10
2023-03-17T17:02:15.369Z,4.80
2023-03-17T17:05:21.015Z,4.68
2023-03-17T17:08:23.872Z,4.82
2023-03-17T17:11:26.078Z,5.12
2023-03-17T17:14:28.604Z,4.22
2023-03-17T17:17:30.895Z,4.28
2023-03-17T17:20:37.610Z,3.92
2023-03-17T17:23:39.876Z,4.45
2023-03-17T17:26:42.532Z,4.72
2023-03-17T17:29:46.066Z,6.35
2023-03-17T17:32:48.644Z,5.43
2023-03-17T17:35:51.853Z,5.78
2023-03-17T17:38:54.549Z,8.30
2023-03-17T17:41:56.734Z,6.80
2023-03-17T17:44:59.785Z,7.85
2023-03-17T17:48:02.293Z,9.15
2023-03-17T17:51:04.946Z,7.97
2023-03-17T17:54:07.146Z,6.32
2023-03-17T17:57:11.692Z,7.65
2023-03-17T18:00:17.139Z,7.35
2023-03-17T18:03:24.442Z,7.37
2023-03-17T18:06:28.919Z,7.32
2023-03-17T18:09:32.050Z,8.52
2023-03-17T18:12:34.558Z,8.02
2023-03-17T18:15:37.122Z,7.50
2023-03-17T18:18:42.375Z,6.95
2023-03-17T18:21:46.152Z,8.25
2023-03-17T18:24:49.762Z,7.82
2023-03-17T18:27:52.595Z,7.95
2023-03-17T18:30:56.977Z,7.00
2023-03-17T18:34:06.720Z,7.15
2023-03-17T18:37:11.440Z,6.20
2023-03-17T18:40:18.620Z,6.18
2023-03-17T18:43:22.029Z,6.53
2023-03-17T18:46:24.748Z,7.35
2023-03-17T18:49:28.246Z,6.75
2023-03-17T18:52:33.105Z,5.87
2023-03-17T18:55:35.335Z,6.43
2023-03-17T18:58:38.106Z,5.93
2023-03-17T19:01:40.585Z,6.30
2023-03-17T19:04:46.101Z,6.10
2023-03-17T19:07:48.501Z,5.62
2023-03-17T19:10:51.023Z,6.15
2023-03-17T19:13:53.339Z,5.40
2023-03-17T19:16:56.099Z,6.45
2023-03-17T19:19:58.511Z,5.62
2023-03-17T19:23:01.304Z,6.05
2023-03-17T19:26:04.860Z,6.25
2023-03-17T19:29:09.766Z,6.55
2023-03-17T19:32:12.064Z,7.10
2023-03-17T19:35:14.711Z,6.53
2023-03-17T19:38:17.046Z,6.75
2023-03-17T19:41:19.599Z,6.85
2023-03-17T19:44:23.199Z,7.90
2023-03-17T19:47:25.750Z,6.40
2023-03-17T19:50:28.209Z,7.68
2023-03-17T19:53:31.341Z,7.65
2023-03-17T19:56:34.078Z,6.10
2023-03-17T19:59:36.589Z,7.30
2023-03-17T20:02:39.084Z,6.28
2023-03-17T20:05:41.973Z,7.18
2023-03-17T20:08:44.442Z,6.50
2023-03-17T20:11:52.376Z,7.70
2023-03-17T20:14:55.907Z,7.62
2023-03-17T20:17:58.389Z,7.28
2023-03-17T20:21:05.219Z,7.22
2023-03-17T20:24:09.841Z,7.68
2023-03-17T20:27:15.380Z,7.70
2023-03-17T20:30:18.051Z,7.57
2023-03-17T20:33:20.380Z,8.25
2023-03-17T20:36:23.747Z,7.32
2023-03-17T20:39:26.317Z,7.55
2023-03-17T20:42:28.903Z,8.15
2023-03-17T20:45:31.677Z,8.45
2023-03-17T20:48:35.838Z,9.05
2023-03-17T20:51:39.448Z,8.00
2023-03-17T20:54:42.239Z,8.75
2023-03-17T20:57:49.305Z,9.20
2023-03-17T21:00:53.308Z,9.27
2023-03-17T21:03:55.640Z,9.45
2023-03-17T21:06:58.280Z,8.93
2023-03-17T21:10:02.042Z,9.43
2023-03-17T21:13:04.572Z,8.93
2023-03-17T21:16:07.385Z,10.05
2023-03-17T21:19:13.711Z,9.43
2023-03-17T21:22:16.102Z,9.52
2023-03-17T21:25:19.113Z,9.43
2023-03-17T21:28:22.757Z,9.38
2023-03-17T21:31:25.345Z,9.60
2023-03-17T21:34:31.755Z,9.60
2023-03-17T21:37:35.021Z,10.23
2023-03-17T21:40:39.481Z,9.90
2023-03-17T21:43:42.184Z,9.35
2023-03-17T21:46:46.223Z,10.18
2023-03-17T21:49:48.791Z,9.68
2023-03-17T21:52:51.031Z,11.63
2023-03-17T21:55:53.832Z,10.50
2023-03-17T21:58:57.449Z,10.20
2023-03-17T22:02:00.746Z,10.68
2023-03-17T22:05:04.651Z,11.12
2023-03-17T22:08:07.085Z,11.57
2023-03-17T22:11:11.535Z,10.65
2023-03-17T22:14:17.368Z,10.93
2023-03-17T22:17:20.098Z,10.18
2023-03-17T22:20:22.409Z,11.07
2023-03-17T22:23:26.283Z,10.68
2023-03-17T22:26:28.781Z,11.73
2023-03-17T22:29:32.360Z,11.43
2023-03-17T22:32:34.735Z,11.73
2023-03-17T22:35:38.185Z,10.52
2023-03-17T22:38:40.597Z,10.75
2023-03-17T22:41:43.816Z,11.75
2023-03-17T22:44:46.274Z,10.90
2023-03-17T22:47:50.863Z,10.57
2023-03-17T22:50:53.118Z,11.77
2023-03-17T22:53:55.826Z,10.23
2023-03-17T22:56:58.056Z,10.73
2023-03-17T23:00:00.961Z,10.75
2023-03-17T23:03:03.419Z,11.10
2023-03-17T23:06:07.630Z,10.02
2023-03-17T23:09:10.168Z,10.68
2023-03-17T23:12:12.978Z,9.82
2023-03-17T23:15:15.929Z,11.00
2023-03-17T23:18:18.821Z,10.48
2023-03-17T23:21:26.547Z,10.55
2023-03-17T23:24:29.222Z,11.07
2023-03-17T23:27:31.590Z,11.15
2023-03-17T23:30:35.751Z,11.12
2023-03-17T23:33:38.805Z,11.55
2023-03-17T23:36:42.274Z,10.25
2023-03-17T23:39:44.888Z,10.35
2023-03-17T23:42:49.111Z,10.40
2023-03-17T23:45:55.772Z,10.40
2023-03-17T23:48:58.494Z,10.00
2023-03-17T23:52:00.809Z,10.68
2023-03-17T23:55:05.892Z,10.10
2023-03-17T23:58:08.134Z,8.75
